createdAt,value
2018-07-17T00:02:36.643Z,5.73
2018-07-17T00:07:31.139Z,5.47
2018-07-17T00:12:25.670Z,5.57
2018-07-17T00:17:20.198Z,5.00
2018-07-17T00:22:14.809Z,7.17
2018-07-17T00:27:09.477Z,6.10
2018-07-17T00:32:03.680Z,5.50
2018-07-17T00:36:58.236Z,7.23
2018-07-17T00:41:52.760Z,6.47
2018-07-17T00:46:47.305Z,5.97
2018-07-17T00:51:41.902Z,6.53
2018-07-17T00:56:36.409Z,6.60
2018-07-17T01:01:36.142Z,5.80
2018-07-17T01:06:35.843Z,6.63
2018-07-17T01:11:35.461Z,6.10
2018-07-17T01:16:30.019Z,7.20
2018-07-17T01:21:24.653Z,7.13
2018-07-17T01:26:19.184Z,6.40
2018-07-17T01:31:13.689Z,7.40
2018-07-17T01:36:08.186Z,6.57
2018-07-17T01:41:02.805Z,6.40
2018-07-17T01:45:57.333Z,7.80
2018-07-17T01:50:51.845Z,6.30
2018-07-17T01:55:46.334Z,6.67
2018-07-17T02:00:40.917Z,6.30
2018-07-17T02:05:35.437Z,6.57
2018-07-17T02:10:29.977Z,7.40
2018-07-17T02:15:24.493Z,7.70
2018-07-17T02:20:18.987Z,6.57
2018-07-17T02:25:13.492Z,7.67
2018-07-17T02:30:08.017Z,7.73
2018-07-17T02:35:02.532Z,7.07
2018-07-17T02:39:57.068Z,6.77
2018-07-17T02:44:51.596Z,7.40
2018-07-17T02:49:46.134Z,6.70
2018-07-17T02:54:40.613Z,6.90
2018-07-17T02:59:35.148Z,8.43
2018-07-17T03:04:29.691Z,7.47
2018-07-17T03:09:24.244Z,7.30
2018-07-17T03:14:18.740Z,7.37
2018-07-17T03:19:13.267Z,6.47
2018-07-17T03:24:07.848Z,9.47
2018-07-17T03:29:02.374Z,8.07
2018-07-17T03:33:56.854Z,8.07
2018-07-17T03:38:51.096Z,7.47
2018-07-17T03:43:45.969Z,6.63
2018-07-17T03:48:40.454Z,9.07
2018-07-17T03:53:34.992Z,8.13
2018-07-17T03:58:29.549Z,7.00
2018-07-17T04:03:24.110Z,6.50
2018-07-17T04:08:18.637Z,7.03
2018-07-17T04:13:13.294Z,6.37
2018-07-17T04:18:07.802Z,7.03
2018-07-17T04:23:02.336Z,6.70
2018-07-17T04:27:56.848Z,6.30
2018-07-17T04:32:51.449Z,6.55
2018-07-17T04:37:45.956Z,7.00
2018-07-17T04:42:40.463Z,9.00
2018-07-17T04:47:35.108Z,8.45
2018-07-17T04:52:29.649Z,7.95
2018-07-17T04:57:24.923Z,6.30
2018-07-17T05:02:19.477Z,7.58
2018-07-17T05:07:14.013Z,5.22
2018-07-17T05:12:08.540Z,6.37
2018-07-17T05:17:03.105Z,7.45
2018-07-17T05:21:57.615Z,6.00
2018-07-17T05:26:52.345Z,6.40
2018-07-17T05:31:46.736Z,6.72
2018-07-17T05:36:41.132Z,5.97
2018-07-17T05:41:35.576Z,6.78
2018-07-17T05:46:30.027Z,6.28
2018-07-17T05:51:24.457Z,6.62
2018-07-17T05:56:18.890Z,6.58
2018-07-17T06:01:13.070Z,7.28
2018-07-17T06:06:14.044Z,6.50
2018-07-17T06:11:08.487Z,8.40
2018-07-17T06:16:02.920Z,8.18
2018-07-17T06:20:57.808Z,7.78
2018-07-17T06:25:53.002Z,7.95
2018-07-17T06:30:49.233Z,6.83
2018-07-17T06:35:43.688Z,7.33
2018-07-17T06:40:41.480Z,6.92
2018-07-17T06:45:35.985Z,5.72
2018-07-17T06:50:39.909Z,4.72
2018-07-17T06:55:34.766Z,6.65
2018-07-17T07:00:29.222Z,5.22
2018-07-17T07:05:30.871Z,5.15
2018-07-17T07:10:26.122Z,6.25
2018-07-17T07:15:20.372Z,5.92
2018-07-17T07:20:14.932Z,4.87
2018-07-17T07:25:09.589Z,5.58
2018-07-17T07:30:15.633Z,5.75
2018-07-17T07:35:10.322Z,6.25
2018-07-17T07:40:05.718Z,6.80
2018-07-17T07:45:01.321Z,4.85
2018-07-17T07:49:55.809Z,5.85
2018-07-17T07:54:50.440Z,5.65
2018-07-17T07:59:45.453Z,5.42
2018-07-17T08:04:40.065Z,4.83
2018-07-17T08:09:34.584Z,5.33
2018-07-17T08:14:50.780Z,4.33
2018-07-17T08:19:45.256Z,4.85
2018-07-17T08:24:39.882Z,4.72
2018-07-17T08:29:34.911Z,4.80
2018-07-17T08:34:29.419Z,4.25
2018-07-17T08:39:25.516Z,4.20
2018-07-17T08:44:21.593Z,4.50
2018-07-17T08:49:17.389Z,3.92
2018-07-17T08:54:12.404Z,7.40
2018-07-17T08:59:07.433Z,6.30
2018-07-17T09:04:02.658Z,6.37
2018-07-17T09:08:58.000Z,4.70
2018-07-17T09:13:52.767Z,5.60
2018-07-17T09:18:48.072Z,3.90
2018-07-17T09:23:42.617Z,5.75
2018-07-17T09:28:37.357Z,5.83
2018-07-17T09:33:32.664Z,4.67
2018-07-17T09:38:27.917Z,4.53
2018-07-17T09:43:22.516Z,5.62
2018-07-17T09:48:17.274Z,4.97
2018-07-17T09:53:11.995Z,4.80
2018-07-17T09:58:09.758Z,6.03
2018-07-17T10:03:05.668Z,4.92
2018-07-17T10:08:03.530Z,4.30
2018-07-17T10:12:58.018Z,5.03
2018-07-17T10:17:53.542Z,7.55
2018-07-17T10:22:58.828Z,4.80
2018-07-17T10:27:54.447Z,4.83
2018-07-17T10:32:58.137Z,4.85
2018-07-17T10:37:53.004Z,5.95
2018-07-17T10:42:58.905Z,5.53
2018-07-17T10:47:53.761Z,4.17
2018-07-17T10:52:48.564Z,7.75
2018-07-17T10:57:43.211Z,4.00
2018-07-17T11:02:38.019Z,3.85
2018-07-17T11:07:32.695Z,3.60
2018-07-17T11:12:27.245Z,3.77
2018-07-17T11:17:21.835Z,5.28
2018-07-17T11:22:16.543Z,4.58
2018-07-17T11:27:11.265Z,3.87
2018-07-17T11:32:05.932Z,6.58
2018-07-17T11:37:00.453Z,6.80
2018-07-17T11:41:54.979Z,5.90
2018-07-17T11:46:49.550Z,4.40
2018-07-17T11:51:44.000Z,4.85
2018-07-17T11:56:38.186Z,5.67
2018-07-17T12:01:32.694Z,6.30
2018-07-17T12:06:27.178Z,4.72
2018-07-17T12:11:22.022Z,6.33
2018-07-17T12:16:16.477Z,4.10
2018-07-17T12:21:11.251Z,6.60
2018-07-17T12:26:07.671Z,4.55
2018-07-17T12:31:02.228Z,2.45
2018-07-17T12:35:56.711Z,4.20
2018-07-17T12:41:02.546Z,3.67
2018-07-17T12:45:57.224Z,3.55
2018-07-17T12:50:51.784Z,2.35
2018-07-17T12:55:46.933Z,3.47
2018-07-17T13:00:41.824Z,1.92
2018-07-17T13:05:36.059Z,1.95
2018-07-17T13:10:30.837Z,3.00
2018-07-17T13:15:25.049Z,2.00
2018-07-17T13:20:19.784Z,1.67
2018-07-17T13:25:14.294Z,1.70
2018-07-17T13:30:12.439Z,2.70
2018-07-17T13:35:06.892Z,2.52
2018-07-17T13:40:01.335Z,1.85
2018-07-17T13:44:55.697Z,2.05
2018-07-17T13:49:50.152Z,2.27
2018-07-17T13:54:44.335Z,1.77
2018-07-17T13:59:39.270Z,1.70
2018-07-17T14:04:33.687Z,2.80
2018-07-17T14:09:28.111Z,2.92
2018-07-17T14:14:22.222Z,2.85
2018-07-17T14:19:16.668Z,2.35
2018-07-17T14:24:11.268Z,2.83
2018-07-17T14:29:08.569Z,3.60
2018-07-17T14:34:02.979Z,3.08
2018-07-17T14:38:58.916Z,2.98
2018-07-17T14:43:53.991Z,5.22
2018-07-17T14:48:49.605Z,3.45
2018-07-17T14:53:46.289Z,3.17
2018-07-17T14:58:42.623Z,3.42
2018-07-17T15:03:37.567Z,3.20
2018-07-17T15:08:34.383Z,4.97
2018-07-17T15:13:29.201Z,3.47
2018-07-17T15:18:24.584Z,4.30
2018-07-17T15:23:19.183Z,3.33
2018-07-17T15:28:13.797Z,3.03
2018-07-17T15:33:08.375Z,5.07
2018-07-17T15:38:03.156Z,3.30
2018-07-17T15:42:57.569Z,4.20
2018-07-17T15:47:52.244Z,2.60
2018-07-17T15:52:46.893Z,4.10
2018-07-17T15:57:41.516Z,6.03
2018-07-17T16:02:36.804Z,5.00
2018-07-17T16:07:31.669Z,3.52
2018-07-17T16:12:27.028Z,3.17
2018-07-17T16:17:22.226Z,1.95
2018-07-17T16:22:17.177Z,2.10
2018-07-17T16:27:11.785Z,2.40
2018-07-17T16:32:06.775Z,2.50
2018-07-17T16:37:01.742Z,2.52
2018-07-17T16:41:56.681Z,2.10
2018-07-17T16:46:52.106Z,2.40
2018-07-17T16:51:46.682Z,2.30
2018-07-17T16:56:41.480Z,3.00
2018-07-17T17:01:36.041Z,3.50
2018-07-17T17:06:30.901Z,2.98
2018-07-17T17:11:26.502Z,3.20
2018-07-17T17:16:21.021Z,2.52
2018-07-17T17:21:15.272Z,2.58
2018-07-17T17:26:09.849Z,2.55
2018-07-17T17:31:04.479Z,3.45
2018-07-17T17:35:59.040Z,2.25
2018-07-17T17:40:53.364Z,2.50
2018-07-17T17:45:47.932Z,2.50
2018-07-17T17:50:42.489Z,2.37
2018-07-17T17:55:37.588Z,2.80
2018-07-17T18:00:32.141Z,4.00
2018-07-17T18:05:26.804Z,2.50
2018-07-17T18:10:21.723Z,5.62
2018-07-17T18:15:16.676Z,2.83
2018-07-17T18:20:11.223Z,3.40
2018-07-17T18:25:05.793Z,3.42
2018-07-17T18:30:00.373Z,3.90
2018-07-17T18:34:54.917Z,2.62
2018-07-17T18:39:49.676Z,3.17
2018-07-17T18:44:44.177Z,3.50
2018-07-17T18:49:38.765Z,3.08
2018-07-17T18:54:33.597Z,3.83
2018-07-17T18:59:28.182Z,5.58
2018-07-17T19:04:22.787Z,3.77
2018-07-17T19:09:17.297Z,3.20
2018-07-17T19:14:11.882Z,3.62
2018-07-17T19:19:06.556Z,3.40
2018-07-17T19:24:01.417Z,3.87
2018-07-17T19:28:55.926Z,3.50
2018-07-17T19:33:50.499Z,3.20
2018-07-17T19:38:45.045Z,3.30
2018-07-17T19:43:39.568Z,6.20
2018-07-17T19:48:34.145Z,4.07
2018-07-17T19:53:28.914Z,3.43
2018-07-17T19:58:23.744Z,3.40
2018-07-17T20:03:18.029Z,3.20
2018-07-17T20:08:12.915Z,4.65
2018-07-17T20:13:07.431Z,3.83
2018-07-17T20:18:02.042Z,3.80
2018-07-17T20:22:56.570Z,5.20
2018-07-17T20:27:51.121Z,4.58
2018-07-17T20:32:45.844Z,6.58
2018-07-17T20:37:40.605Z,4.25
2018-07-17T20:42:35.177Z,3.67
2018-07-17T20:47:29.694Z,4.28
2018-07-17T20:52:24.348Z,4.27
2018-07-17T20:57:18.872Z,4.30
2018-07-17T21:02:13.758Z,5.80
2018-07-17T21:07:08.772Z,5.20
2018-07-17T21:12:03.349Z,3.70
2018-07-17T21:16:57.547Z,4.67
2018-07-17T21:21:52.138Z,3.80
2018-07-17T21:26:46.693Z,4.43
2018-07-17T21:31:41.260Z,6.33
2018-07-17T21:36:35.776Z,6.97
2018-07-17T21:41:30.301Z,4.00
2018-07-17T21:46:24.845Z,4.27
2018-07-17T21:51:19.384Z,5.17
2018-07-17T21:56:13.972Z,4.50
2018-07-17T22:01:08.539Z,4.57
2018-07-17T22:06:03.080Z,5.63
2018-07-17T22:10:57.814Z,4.73
2018-07-17T22:15:52.040Z,5.93
2018-07-17T22:20:46.533Z,5.30
2018-07-17T22:25:41.020Z,6.43
2018-07-17T22:30:35.561Z,6.47
2018-07-17T22:35:30.148Z,5.47
2018-07-17T22:40:24.675Z,4.10
2018-07-17T22:45:19.214Z,4.03
2018-07-17T22:50:13.719Z,5.93
2018-07-17T22:55:08.383Z,4.47
2018-07-17T23:00:02.947Z,4.73
2018-07-17T23:04:57.512Z,6.70
2018-07-17T23:09:52.261Z,4.13
2018-07-17T23:14:46.800Z,5.33
2018-07-17T23:19:41.313Z,5.63
2018-07-17T23:24:35.814Z,6.60
2018-07-17T23:29:30.421Z,4.73
2018-07-17T23:34:24.937Z,5.73
2018-07-17T23:39:19.441Z,4.70
2018-07-17T23:44:13.962Z,5.23
2018-07-17T23:49:08.508Z,4.07
2018-07-17T23:54:02.730Z,4.87
2018-07-17T23:58:57.284Z,4.87
